sensor_id;sensor_type;location;lat;lon;timestamp;pressure;altitude;pressure_sealevel;temperature;humidity
17781;BME280;8498;52.516;13.790;2023-10-31T00:01:14;99021.38;;;13.71;100.00
17781;BME280;8498;52.516;13.790;2023-10-31T00:06:36;99011.72;;;13.70;100.00
17781;BME280;8498;52.516;13.790;2023-10-31T00:11:59;99030.06;;;13.73;100.00
17781;BME280;8498;52.516;13.790;2023-10-31T00:17:22;99052.59;;;13.70;100.00
17781;BME280;8498;52.516;13.790;2023-10-31T00:22:44;99037.88;;;13.66;100.00
17781;BME280;8498;52.516;13.790;2023-10-31T00:28:06;99030.22;;;13.71;100.00
17781;BME280;8498;52.516;13.790;2023-10-31T00:33:29;99027.53;;;13.71;100.00
17781;BME280;8498;52.516;13.790;2023-10-31T00:38:52;99031.41;;;13.69;100.00
17781;BME280;8498;52.516;13.790;2023-10-31T00:44:14;99026.72;;;13.71;100.00
17781;BME280;8498;52.516;13.790;2023-10-31T00:49:37;99022.88;;;13.65;100.00
17781;BME280;8498;52.516;13.790;2023-10-31T00:54:59;99004.69;;;13.60;100.00
17781;BME280;8498;52.516;13.790;2023-10-31T01:00:22;98989.84;;;13.58;100.00
17781;BME280;8498;52.516;13.790;2023-10-31T01:05:44;99002.38;;;13.57;100.00
17781;BME280;8498;52.516;13.790;2023-10-31T01:11:06;98995.19;;;13.58;100.00
17781;BME280;8498;52.516;13.790;2023-10-31T01:16:29;98978.00;;;13.52;100.00
17781;BME280;8498;52.516;13.790;2023-10-31T01:21:51;98975.50;;;13.51;100.00
17781;BME280;8498;52.516;13.790;2023-10-31T01:27:14;98964.19;;;13.49;100.00
17781;BME280;8498;52.516;13.790;2023-10-31T01:32:36;98966.16;;;13.47;100.00
17781;BME280;8498;52.516;13.790;2023-10-31T01:37:59;98958.16;;;13.47;100.00
17781;BME280;8498;52.516;13.790;2023-10-31T01:48:53;98933.81;;;13.50;100.00
17781;BME280;8498;52.516;13.790;2023-10-31T01:54:16;98918.63;;;13.42;100.00
17781;BME280;8498;52.516;13.790;2023-10-31T01:59:39;98904.63;;;13.40;100.00
17781;BME280;8498;52.516;13.790;2023-10-31T02:05:02;98918.94;;;13.39;100.00
17781;BME280;8498;52.516;13.790;2023-10-31T02:10:25;98925.63;;;13.43;100.00
17781;BME280;8498;52.516;13.790;2023-10-31T02:15:47;98927.16;;;13.46;100.00
17781;BME280;8498;52.516;13.790;2023-10-31T02:21:09;98913.97;;;13.44;100.00
17781;BME280;8498;52.516;13.790;2023-10-31T02:26:33;98887.78;;;13.40;100.00
17781;BME280;8498;52.516;13.790;2023-10-31T02:31:56;98889.97;;;13.36;100.00
17781;BME280;8498;52.516;13.790;2023-10-31T02:37:18;98862.78;;;13.33;100.00
17781;BME280;8498;52.516;13.790;2023-10-31T02:42:41;98852.44;;;13.30;100.00
17781;BME280;8498;52.516;13.790;2023-10-31T02:48:04;98840.16;;;13.29;100.00
17781;BME280;8498;52.516;13.790;2023-10-31T02:53:27;98851.28;;;13.32;100.00
17781;BME280;8498;52.516;13.790;2023-10-31T02:58:49;98859.44;;;13.31;100.00
17781;BME280;8498;52.516;13.790;2023-10-31T03:04:12;98849.13;;;13.36;100.00
17781;BME280;8498;52.516;13.790;2023-10-31T03:09:34;98842.13;;;13.35;100.00
17781;BME280;8498;52.516;13.790;2023-10-31T03:14:58;98839.63;;;13.41;100.00
17781;BME280;8498;52.516;13.790;2023-10-31T03:20:20;98830.78;;;13.41;100.00
17781;BME280;8498;52.516;13.790;2023-10-31T03:25:43;98829.63;;;13.43;100.00
17781;BME280;8498;52.516;13.790;2023-10-31T03:31:05;98821.63;;;13.43;100.00
17781;BME280;8498;52.516;13.790;2023-10-31T03:36:28;98827.47;;;13.47;100.00
17781;BME280;8498;52.516;13.790;2023-10-31T03:41:50;98825.28;;;13.50;100.00
17781;BME280;8498;52.516;13.790;2023-10-31T03:47:12;98835.44;;;13.55;100.00
17781;BME280;8498;52.516;13.790;2023-10-31T03:52:34;98826.78;;;13.53;100.00
17781;BME280;8498;52.516;13.790;2023-10-31T03:57:57;98833.13;;;13.52;100.00
17781;BME280;8498;52.516;13.790;2023-10-31T04:03:20;98835.78;;;13.52;100.00
17781;BME280;8498;52.516;13.790;2023-10-31T04:08:42;98842.31;;;13.49;100.00
17781;BME280;8498;52.516;13.790;2023-10-31T04:14:06;98831.13;;;13.46;100.00
17781;BME280;8498;52.516;13.790;2023-10-31T04:19:28;98824.78;;;13.55;100.00
17781;BME280;8498;52.516;13.790;2023-10-31T04:24:50;98828.78;;;13.59;100.00
17781;BME280;8498;52.516;13.790;2023-10-31T04:30:14;98828.59;;;13.60;100.00
17781;BME280;8498;52.516;13.790;2023-10-31T04:35:37;98831.78;;;13.64;100.00
17781;BME280;8498;52.516;13.790;2023-10-31T04:40:59;98819.94;;;13.58;100.00
17781;BME280;8498;52.516;13.790;2023-10-31T04:46:21;98828.28;;;13.64;100.00
17781;BME280;8498;52.516;13.790;2023-10-31T04:51:44;98827.09;;;13.50;100.00
17781;BME280;8498;52.516;13.790;2023-10-31T04:57:06;98816.09;;;13.61;100.00
17781;BME280;8498;52.516;13.790;2023-10-31T05:02:28;98803.13;;;13.58;100.00
17781;BME280;8498;52.516;13.790;2023-10-31T05:07:51;98807.25;;;13.60;100.00
17781;BME280;8498;52.516;13.790;2023-10-31T05:13:13;98816.09;;;13.61;100.00
17781;BME280;8498;52.516;13.790;2023-10-31T05:18:36;98815.09;;;13.62;100.00
17781;BME280;8498;52.516;13.790;2023-10-31T05:23:58;98820.94;;;13.66;100.00
17781;BME280;8498;52.516;13.790;2023-10-31T05:29:21;98818.44;;;13.64;100.00
17781;BME280;8498;52.516;13.790;2023-10-31T05:34:43;98814.94;;;13.55;100.00
17781;BME280;8498;52.516;13.790;2023-10-31T05:40:06;98819.94;;;13.58;100.00
17781;BME280;8498;52.516;13.790;2023-10-31T05:45:30;98826.44;;;13.56;100.00
17781;BME280;8498;52.516;13.790;2023-10-31T05:50:52;98830.09;;;13.63;100.00
17781;BME280;8498;52.516;13.790;2023-10-31T05:56:15;98813.78;;;13.58;100.00
17781;BME280;8498;52.516;13.790;2023-10-31T06:01:38;98834.75;;;13.61;100.00
17781;BME280;8498;52.516;13.790;2023-10-31T06:07:01;98842.13;;;13.59;100.00
17781;BME280;8498;52.516;13.790;2023-10-31T06:12:24;98843.94;;;13.67;100.00
17781;BME280;8498;52.516;13.790;2023-10-31T06:17:47;98852.13;;;13.65;100.00
17781;BME280;8498;52.516;13.790;2023-10-31T06:23:09;98857.44;;;13.65;100.00
17781;BME280;8498;52.516;13.790;2023-10-31T06:28:31;98858.78;;;13.69;100.00
17781;BME280;8498;52.516;13.790;2023-10-31T06:34:02;98874.44;;;13.72;100.00
17781;BME280;8498;52.516;13.790;2023-10-31T06:39:24;98880.28;;;13.76;100.00
17781;BME280;8498;52.516;13.790;2023-10-31T06:44:47;98888.81;;;13.79;100.00
17781;BME280;8498;52.516;13.790;2023-10-31T06:50:09;98882.94;;;13.84;100.00
17781;BME280;8498;52.516;13.790;2023-10-31T06:55:32;98889.28;;;13.75;100.00
17781;BME280;8498;52.516;13.790;2023-10-31T07:00:54;98890.63;;;13.71;100.00
17781;BME280;8498;52.516;13.790;2023-10-31T07:06:17;98896.31;;;13.76;100.00
17781;BME280;8498;52.516;13.790;2023-10-31T07:11:39;98907.13;;;13.82;100.00
17781;BME280;8498;52.516;13.790;2023-10-31T07:17:02;98918.81;;;13.89;100.00
17781;BME280;8498;52.516;13.790;2023-10-31T07:22:25;98927.81;;;13.96;100.00
17781;BME280;8498;52.516;13.790;2023-10-31T07:27:47;98933.13;;;14.05;100.00
17781;BME280;8498;52.516;13.790;2023-10-31T07:33:10;98925.47;;;14.10;100.00
17781;BME280;8498;52.516;13.790;2023-10-31T07:38:32;98937.13;;;14.17;100.00
17781;BME280;8498;52.516;13.790;2023-10-31T07:43:55;98941.13;;;14.21;100.00
17781;BME280;8498;52.516;13.790;2023-10-31T07:49:17;98944.09;;;14.26;100.00
17781;BME280;8498;52.516;13.790;2023-10-31T07:54:40;98954.50;;;14.21;100.00
17781;BME280;8498;52.516;13.790;2023-10-31T08:00:03;98967.84;;;13.96;100.00
17781;BME280;8498;52.516;13.790;2023-10-31T08:05:33;98965.81;;;14.15;100.00
17781;BME280;8498;52.516;13.790;2023-10-31T08:10:55;98964.50;;;14.11;100.00
17781;BME280;8498;52.516;13.790;2023-10-31T08:16:19;98968.84;;;14.20;100.00
17781;BME280;8498;52.516;13.790;2023-10-31T08:21:42;98995.84;;;14.49;100.00
17781;BME280;8498;52.516;13.790;2023-10-31T08:27:05;99008.22;;;14.18;100.00
17781;BME280;8498;52.516;13.790;2023-10-31T08:32:28;99022.25;;;14.20;100.00
17781;BME280;8498;52.516;13.790;2023-10-31T08:37:51;99031.09;;;14.28;100.00
17781;BME280;8498;52.516;13.790;2023-10-31T08:43:13;99041.25;;;14.17;100.00
17781;BME280;8498;52.516;13.790;2023-10-31T08:48:36;99043.94;;;14.17;100.00
17781;BME280;8498;52.516;13.790;2023-10-31T08:53:58;99049.59;;;14.14;100.00
17781;BME280;8498;52.516;13.790;2023-10-31T08:59:20;99047.94;;;14.05;100.00
17781;BME280;8498;52.516;13.790;2023-10-31T09:04:43;99055.63;;;14.16;100.00
17781;BME280;8498;52.516;13.790;2023-10-31T09:10:06;99074.47;;;13.98;100.00
17781;BME280;8498;52.516;13.790;2023-10-31T09:15:28;99075.63;;;14.04;100.00
17781;BME280;8498;52.516;13.790;2023-10-31T09:20:51;99088.66;;;14.07;100.00
17781;BME280;8498;52.516;13.790;2023-10-31T09:26:13;99081.66;;;13.98;97.94
17781;BME280;8498;52.516;13.790;2023-10-31T09:31:36;99084.00;;;14.01;95.68
17781;BME280;8498;52.516;13.790;2023-10-31T09:36:58;99096.31;;;14.02;93.09
17781;BME280;8498;52.516;13.790;2023-10-31T09:42:21;99101.84;;;14.08;90.14
17781;BME280;8498;52.516;13.790;2023-10-31T09:47:43;99110.69;;;14.17;88.59
17781;BME280;8498;52.516;13.790;2023-10-31T09:53:06;99122.38;;;14.00;87.82
17781;BME280;8498;52.516;13.790;2023-10-31T09:58:29;99118.50;;;13.94;88.06
17781;BME280;8498;52.516;13.790;2023-10-31T10:03:51;99134.72;;;14.01;89.19
17781;BME280;8498;52.516;13.790;2023-10-31T10:09:14;99145.72;;;13.98;88.96
17781;BME280;8498;52.516;13.790;2023-10-31T10:14:38;99155.56;;;13.97;88.92
17781;BME280;8498;52.516;13.790;2023-10-31T10:20:09;99163.91;;;14.02;87.91
17781;BME280;8498;52.516;13.790;2023-10-31T10:25:31;99172.09;;;14.01;86.57
17781;BME280;8498;52.516;13.790;2023-10-31T10:31:04;99155.78;;;14.20;86.55
17781;BME280;8498;52.516;13.790;2023-10-31T10:36:29;99156.09;;;14.33;86.11
17781;BME280;8498;52.516;13.790;2023-10-31T10:41:54;99167.84;;;14.56;83.32
17781;BME280;8498;52.516;13.790;2023-10-31T10:47:20;99159.16;;;14.54;82.86
17781;BME280;8498;52.516;13.790;2023-10-31T10:52:54;99163.50;;;14.88;80.54
17781;BME280;8498;52.516;13.790;2023-10-31T10:58:41;99152.31;;;15.64;77.01
17781;BME280;8498;52.516;13.790;2023-10-31T11:04:07;99160.34;;;15.64;76.77
17781;BME280;8498;52.516;13.790;2023-10-31T11:09:30;99153.53;;;15.45;76.43
17781;BME280;8498;52.516;13.790;2023-10-31T11:14:53;99151.41;;;15.24;75.02
17781;BME280;8498;52.516;13.790;2023-10-31T11:20:16;99145.38;;;15.22;75.49
17781;BME280;8498;52.516;13.790;2023-10-31T11:25:43;99149.47;;;15.49;75.30
17781;BME280;8498;52.516;13.790;2023-10-31T11:31:08;99152.66;;;15.92;72.86
17781;BME280;8498;52.516;13.790;2023-10-31T11:36:31;99170.16;;;15.71;72.17
17781;BME280;8498;52.516;13.790;2023-10-31T11:41:57;99164.41;;;15.35;72.06
17781;BME280;8498;52.516;13.790;2023-10-31T11:47:19;99171.84;;;15.01;74.06
17781;BME280;8498;52.516;13.790;2023-10-31T11:52:58;99173.34;;;15.03;75.65
17781;BME280;8498;52.516;13.790;2023-10-31T11:58:24;99187.56;;;14.88;76.11
17781;BME280;8498;52.516;13.790;2023-10-31T12:03:48;99196.25;;;14.98;77.15
17781;BME280;8498;52.516;13.790;2023-10-31T12:09:11;99182.53;;;14.85;77.84
17781;BME280;8498;52.516;13.790;2023-10-31T12:14:34;99180.03;;;14.91;77.83
17781;BME280;8498;52.516;13.790;2023-10-31T12:20:06;99192.56;;;14.91;78.08
17781;BME280;8498;52.516;13.790;2023-10-31T12:25:29;99190.06;;;14.89;79.57
17781;BME280;8498;52.516;13.790;2023-10-31T12:30:53;99211.94;;;14.85;80.47
17781;BME280;8498;52.516;13.790;2023-10-31T12:36:16;99211.94;;;14.77;81.37
17781;BME280;8498;52.516;13.790;2023-10-31T12:41:40;99212.31;;;14.74;82.41
17781;BME280;8498;52.516;13.790;2023-10-31T12:47:07;99226.00;;;14.62;83.66
17781;BME280;8498;52.516;13.790;2023-10-31T12:52:45;99240.69;;;14.66;83.93
17781;BME280;8498;52.516;13.790;2023-10-31T12:58:08;99248.69;;;14.75;79.88
17781;BME280;8498;52.516;13.790;2023-10-31T13:03:32;99262.91;;;14.75;76.22
17781;BME280;8498;52.516;13.790;2023-10-31T13:09:11;99248.06;;;14.73;74.84
17781;BME280;8498;52.516;13.790;2023-10-31T13:14:37;99247.03;;;14.98;73.92
17781;BME280;8498;52.516;13.790;2023-10-31T13:20:01;99272.78;;;14.83;73.00
17781;BME280;8498;52.516;13.790;2023-10-31T13:25:26;99291.81;;;14.72;73.33
17781;BME280;8498;52.516;13.790;2023-10-31T13:30:48;99295.13;;;14.65;74.88
17781;BME280;8498;52.516;13.790;2023-10-31T13:36:11;99288.59;;;14.52;75.63
17781;BME280;8498;52.516;13.790;2023-10-31T13:41:34;99297.81;;;14.65;76.35
17781;BME280;8498;52.516;13.790;2023-10-31T13:46:57;99294.13;;;14.66;75.86
17781;BME280;8498;52.516;13.790;2023-10-31T13:52:20;99308.00;;;14.70;76.16
17781;BME280;8498;52.516;13.790;2023-10-31T13:57:43;99318.19;;;14.66;75.52
17781;BME280;8498;52.516;13.790;2023-10-31T14:03:05;99348.94;;;14.62;75.35
17781;BME280;8498;52.516;13.790;2023-10-31T14:08:28;99355.44;;;14.60;75.41
17781;BME280;8498;52.516;13.790;2023-10-31T14:13:50;99371.88;;;14.39;75.98
17781;BME280;8498;52.516;13.790;2023-10-31T14:19:14;99381.88;;;14.37;77.47
17781;BME280;8498;52.516;13.790;2023-10-31T14:24:38;99386.78;;;14.42;78.20
17781;BME280;8498;52.516;13.790;2023-10-31T14:30:01;99419.22;;;14.29;79.76
17781;BME280;8498;52.516;13.790;2023-10-31T14:35:23;99400.31;;;14.22;81.19
17781;BME280;8498;52.516;13.790;2023-10-31T14:40:46;99426.81;;;14.16;82.75
17781;BME280;8498;52.516;13.790;2023-10-31T14:46:08;99440.84;;;13.92;84.81
17781;BME280;8498;52.516;13.790;2023-10-31T14:51:31;99462.16;;;13.66;91.53
17781;BME280;8498;52.516;13.790;2023-10-31T14:56:53;99477.88;;;13.34;100.00
17781;BME280;8498;52.516;13.790;2023-10-31T15:02:15;99470.41;;;13.10;100.00
17781;BME280;8498;52.516;13.790;2023-10-31T15:07:38;99488.00;;;13.03;100.00
17781;BME280;8498;52.516;13.790;2023-10-31T15:13:02;99493.72;;;13.08;100.00
17781;BME280;8498;52.516;13.790;2023-10-31T15:18:26;99505.81;;;13.02;100.00
17781;BME280;8498;52.516;13.790;2023-10-31T15:23:49;99518.63;;;12.89;100.00
17781;BME280;8498;52.516;13.790;2023-10-31T15:29:15;99518.91;;;12.96;100.00
17781;BME280;8498;52.516;13.790;2023-10-31T15:34:39;99519.06;;;12.94;100.00
17781;BME280;8498;52.516;13.790;2023-10-31T15:40:06;99528.63;;;12.87;100.00
17781;BME280;8498;52.516;13.790;2023-10-31T15:45:31;99517.47;;;12.74;100.00
17781;BME280;8498;52.516;13.790;2023-10-31T15:51:02;99522.28;;;12.61;100.00
17781;BME280;8498;52.516;13.790;2023-10-31T15:56:25;99539.66;;;12.65;100.00
17781;BME280;8498;52.516;13.790;2023-10-31T16:01:47;99545.97;;;12.64;100.00
17781;BME280;8498;52.516;13.790;2023-10-31T16:07:12;99550.31;;;12.65;100.00
17781;BME280;8498;52.516;13.790;2023-10-31T16:12:34;99562.41;;;12.49;100.00
17781;BME280;8498;52.516;13.790;2023-10-31T16:17:57;99565.50;;;12.55;100.00
17781;BME280;8498;52.516;13.790;2023-10-31T16:23:19;99576.16;;;12.45;100.00
17781;BME280;8498;52.516;13.790;2023-10-31T16:28:44;99579.25;;;12.31;100.00
17781;BME280;8498;52.516;13.790;2023-10-31T16:34:08;99593.16;;;12.25;100.00
17781;BME280;8498;52.516;13.790;2023-10-31T16:39:30;99598.19;;;12.18;100.00
17781;BME280;8498;52.516;13.790;2023-10-31T16:44:53;99597.34;;;12.27;100.00
17781;BME280;8498;52.516;13.790;2023-10-31T16:50:15;99616.13;;;12.35;100.00
17781;BME280;8498;52.516;13.790;2023-10-31T16:55:38;99612.03;;;12.41;100.00
17781;BME280;8498;52.516;13.790;2023-10-31T17:01:03;99617.94;;;12.44;100.00
17781;BME280;8498;52.516;13.790;2023-10-31T17:06:26;99629.84;;;12.31;100.00
17781;BME280;8498;52.516;13.790;2023-10-31T17:11:50;99634.19;;;12.41;100.00
17781;BME280;8498;52.516;13.790;2023-10-31T17:17:12;99634.19;;;12.41;100.00
17781;BME280;8498;52.516;13.790;2023-10-31T17:22:34;99656.47;;;12.40;100.00
17781;BME280;8498;52.516;13.790;2023-10-31T17:28:00;99657.47;;;12.39;100.00
17781;BME280;8498;52.516;13.790;2023-10-31T17:33:22;99663.88;;;12.46;100.00
17781;BME280;8498;52.516;13.790;2023-10-31T17:38:50;99663.50;;;12.41;100.00
17781;BME280;8498;52.516;13.790;2023-10-31T17:44:12;99670.06;;;12.37;100.00
17781;BME280;8498;52.516;13.790;2023-10-31T17:49:35;99678.75;;;12.30;100.00
17781;BME280;8498;52.516;13.790;2023-10-31T17:54:57;99682.00;;;12.33;100.00
17781;BME280;8498;52.516;13.790;2023-10-31T18:00:20;99692.47;;;12.25;100.00
17781;BME280;8498;52.516;13.790;2023-10-31T18:05:42;99708.31;;;12.27;100.00
17781;BME280;8498;52.516;13.790;2023-10-31T18:11:04;99705.97;;;12.24;100.00
17781;BME280;8498;52.516;13.790;2023-10-31T18:16:27;99711.41;;;12.22;100.00
17781;BME280;8498;52.516;13.790;2023-10-31T18:21:50;99721.94;;;12.14;100.00
17781;BME280;8498;52.516;13.790;2023-10-31T18:27:12;99726.81;;;12.09;100.00
17781;BME280;8498;52.516;13.790;2023-10-31T18:32:35;99734.09;;;12.07;100.00
17781;BME280;8498;52.516;13.790;2023-10-31T18:37:58;99739.00;;;12.11;100.00
17781;BME280;8498;52.516;13.790;2023-10-31T18:43:20;99739.56;;;12.15;100.00
17781;BME280;8498;52.516;13.790;2023-10-31T18:48:43;99743.66;;;12.29;100.00
17781;BME280;8498;52.516;13.790;2023-10-31T18:54:06;99748.28;;;12.36;100.00
17781;BME280;8498;52.516;13.790;2023-10-31T18:59:28;99761.06;;;12.42;100.00
17781;BME280;8498;52.516;13.790;2023-10-31T19:04:51;99771.00;;;12.50;100.00
17781;BME280;8498;52.516;13.790;2023-10-31T19:10:13;99786.16;;;12.59;100.00
17781;BME280;8498;52.516;13.790;2023-10-31T19:15:35;99789.25;;;12.55;100.00
17781;BME280;8498;52.516;13.790;2023-10-31T19:20:59;99786.03;;;12.51;100.00
17781;BME280;8498;52.516;13.790;2023-10-31T19:26:21;99801.75;;;12.54;100.00
17781;BME280;8498;52.516;13.790;2023-10-31T19:31:44;99816.44;;;12.48;100.00
17781;BME280;8498;52.516;13.790;2023-10-31T19:37:06;99817.41;;;12.47;100.00
17781;BME280;8498;52.516;13.790;2023-10-31T19:42:29;99844.34;;;12.44;100.00
17781;BME280;8498;52.516;13.790;2023-10-31T19:47:51;99849.66;;;12.35;99.21
17781;BME280;8498;52.516;13.790;2023-10-31T19:53:15;99855.63;;;12.27;98.33
17781;BME280;8498;52.516;13.790;2023-10-31T19:58:37;99857.53;;;12.16;94.73
17781;BME280;8498;52.516;13.790;2023-10-31T20:04:00;99862.00;;;12.05;90.52
17781;BME280;8498;52.516;13.790;2023-10-31T20:09:23;99866.72;;;11.92;86.02
17781;BME280;8498;52.516;13.790;2023-10-31T20:14:45;99893.78;;;11.76;83.06
17781;BME280;8498;52.516;13.790;2023-10-31T20:20:23;99887.94;;;11.62;79.97
17781;BME280;8498;52.516;13.790;2023-10-31T20:25:45;99907.00;;;11.46;78.06
17781;BME280;8498;52.516;13.790;2023-10-31T20:31:08;99912.16;;;11.27;77.48
17781;BME280;8498;52.516;13.790;2023-10-31T20:36:31;99916.56;;;11.17;75.90
17781;BME280;8498;52.516;13.790;2023-10-31T20:41:53;99928.19;;;11.04;74.34
17781;BME280;8498;52.516;13.790;2023-10-31T20:47:16;99939.88;;;11.13;74.35
17781;BME280;8498;52.516;13.790;2023-10-31T20:52:38;99954.81;;;10.82;74.70
17781;BME280;8498;52.516;13.790;2023-10-31T20:58:01;99957.69;;;10.90;74.97
17781;BME280;8498;52.516;13.790;2023-10-31T21:03:24;99972.75;;;10.58;74.27
17781;BME280;8498;52.516;13.790;2023-10-31T21:08:47;99987.44;;;10.51;73.74
17781;BME280;8498;52.516;13.790;2023-10-31T21:14:09;99985.28;;;10.34;72.94
17781;BME280;8498;52.516;13.790;2023-10-31T21:19:32;99997.09;;;10.29;73.62
17781;BME280;8498;52.516;13.790;2023-10-31T21:24:58;100001.16;;;10.11;72.58
17781;BME280;8498;52.516;13.790;2023-10-31T21:30:21;100005.56;;;9.88;73.36
17781;BME280;8498;52.516;13.790;2023-10-31T21:35:45;100013.47;;;9.77;72.98
17781;BME280;8498;52.516;13.790;2023-10-31T21:41:07;100020.25;;;9.81;74.24
17781;BME280;8498;52.516;13.790;2023-10-31T21:46:30;100019.56;;;9.67;75.92
17781;BME280;8498;52.516;13.790;2023-10-31T21:51:53;100036.44;;;9.66;76.03
17781;BME280;8498;52.516;13.790;2023-10-31T21:57:15;100030.47;;;9.75;77.01
17781;BME280;8498;52.516;13.790;2023-10-31T22:02:38;100048.75;;;9.67;77.86
17781;BME280;8498;52.516;13.790;2023-10-31T22:08:00;100068.28;;;9.66;78.21
17781;BME280;8498;52.516;13.790;2023-10-31T22:13:23;100084.38;;;9.75;80.56
17781;BME280;8498;52.516;13.790;2023-10-31T22:18:45;100094.84;;;10.01;77.52
17781;BME280;8498;52.516;13.790;2023-10-31T22:24:08;100109.81;;;9.78;74.03
17781;BME280;8498;52.516;13.790;2023-10-31T22:29:31;100110.69;;;9.66;73.45
17781;BME280;8498;52.516;13.790;2023-10-31T22:34:53;100103.38;;;9.69;73.92
17781;BME280;8498;52.516;13.790;2023-10-31T22:40:16;100105.19;;;9.69;74.04
17781;BME280;8498;52.516;13.790;2023-10-31T22:45:39;100112.75;;;9.62;73.72
17781;BME280;8498;52.516;13.790;2023-10-31T22:51:02;100141.56;;;9.67;73.18
17781;BME280;8498;52.516;13.790;2023-10-31T22:56:25;100140.88;;;9.65;72.75
17781;BME280;8498;52.516;13.790;2023-10-31T23:01:47;100140.22;;;9.61;72.04
17781;BME280;8498;52.516;13.790;2023-10-31T23:07:10;100151.22;;;9.68;72.07
17781;BME280;8498;52.516;13.790;2023-10-31T23:12:33;100155.56;;;9.69;72.93
17781;BME280;8498;52.516;13.790;2023-10-31T23:17:55;100164.13;;;9.48;72.20
17781;BME280;8498;52.516;13.790;2023-10-31T23:23:18;100161.47;;;9.48;71.83
17781;BME280;8498;52.516;13.790;2023-10-31T23:28:41;100158.06;;;9.46;71.51
17781;BME280;8498;52.516;13.790;2023-10-31T23:34:04;100159.03;;;9.45;70.67
17781;BME280;8498;52.516;13.790;2023-10-31T23:39:26;100172.41;;;9.44;70.82
17781;BME280;8498;52.516;13.790;2023-10-31T23:44:49;100177.28;;;9.37;69.68
17781;BME280;8498;52.516;13.790;2023-10-31T23:50:11;100178.91;;;9.27;69.96
17781;BME280;8498;52.516;13.790;2023-10-31T23:55:34;100182.75;;;9.23;71.24
